Bogota, New Jersey
Current Conditions -  °F | °C
As of 1:51 AM on Monday 24 Nov 2014 (Local Time) from KTEB Reporting Station
Light Rain Light Rain  
Wind Chill: 51°   Ceiling: 2400
Heat Index: 51°   Visibility: 4mi
Dew Point: 49°   Wind: 3mph
Humidity: 92%   Direction: 70°ENE
Pressure: 29.88"   Gusts: NA
Location:  40.88°N, 74.03°W
Report Text: KTEB 240651Z 07003KT 4SM -RA BR FEW016 BKN024 OVC035 11/09 A2988 RMK AO2 SLP119 P0005 T01060094
Loading
Personal Weather Stations






























Interactive Weather Map New forecast layout! Learn more

10-Day Weather Forecast

Advertisements
Track Severe Weather on mobile